ホーチミン の空港の天気 - METARとTAF

タンソンニャット国際空港 (ホーチミン) ( VVTS / SGN ) - ベトナム ホーチミン市
飛行場実況気象(Metar)
観測時間05/21 05:30 ICT (05/20 22:30 UTC)
風向・風速不定 1m/s
視程10km以上
天気現象
少しの雲 雲底高度 520m
全天の8割程度の雲 雲底高度 1520m
気温28℃
湿度89%
気圧1008hPa
METARVVTS 202230Z VRB01KT 9999 FEW017 BKN050 28/26 Q1008 NOSIG
過去の天気等 Google飛行場航空写真 Wunderground天気予報

過去48時間のMETAR

飛行場予報(TAF)
発表時間: 5/21 00:00 ICT (5/20 17:00 UTC)
予報対象時間: 21日1時 ICT ~ 22日7時 ICT
風向・風速不定 1m/s
視程10km以上
全天の4割程度の雲 雲底高度 520m
全天の4割程度の雲 雲底高度 1220m
21日7時 ICT ~ 21日8時 ICT に徐々に
風向・風速南西 5m/s
21日13時 ICT ~ 21日18時 ICT に一時的に
風向・風速西南西 8m/s 瞬間風速 14m/s
視程3000m
天気現象雷雨
全天の8割程度の雲 雲底高度 400m
全天の4割程度の積乱雲 雲底高度 460m
TAF VVTS 201700Z 2018/2124 VRB02KT 9999 SCT017 SCT040
BECMG 2100/2101 23010KT
TEMPO 2106/2111 24015G28KT 3000 TSRA BKN013 SCT015CB